createdAt,value
2018-04-27T00:02:20.749Z,101173.48
2018-04-27T00:04:46.519Z,101172.90
2018-04-27T00:07:12.269Z,101178.96
2018-04-27T00:09:38.057Z,101168.61
2018-04-27T00:12:03.824Z,101162.70
2018-04-27T00:14:29.592Z,101164.34
2018-04-27T00:16:55.341Z,101166.23
2018-04-27T00:19:21.130Z,101171.80
2018-04-27T00:21:46.894Z,101170.54
2018-04-27T00:24:12.709Z,101170.95
2018-04-27T00:26:38.464Z,101170.44
2018-04-27T00:29:04.278Z,101168.33
2018-04-27T00:31:30.028Z,101161.55
2018-04-27T00:33:55.828Z,101160.00
2018-04-27T00:36:21.584Z,101156.05
2018-04-27T00:38:47.355Z,101159.49
2018-04-27T00:41:13.108Z,101150.89
2018-04-27T00:43:38.898Z,101164.16
2018-04-27T00:46:04.639Z,101156.88
2018-04-27T00:48:30.410Z,101153.28
2018-04-27T00:50:56.199Z,101157.48
2018-04-27T00:53:22.221Z,101155.80
2018-04-27T00:55:47.996Z,101157.16
2018-04-27T00:58:13.735Z,101155.06
2018-04-27T01:00:39.542Z,101152.55
2018-04-27T01:03:05.297Z,101154.58
2018-04-27T01:05:31.087Z,101156.14
2018-04-27T01:07:56.872Z,101153.33
2018-04-27T01:10:22.630Z,101154.77
2018-04-27T01:12:48.390Z,101156.16
2018-04-27T01:15:14.211Z,101147.24
2018-04-27T01:17:39.975Z,101147.03
2018-04-27T01:20:05.737Z,101142.11
2018-04-27T01:22:31.480Z,101142.92
2018-04-27T01:24:57.272Z,101135.72
2018-04-27T01:27:23.049Z,101135.22
2018-04-27T01:29:48.861Z,101146.26
2018-04-27T01:32:14.620Z,101141.08
2018-04-27T01:34:40.552Z,101144.31
2018-04-27T01:37:06.322Z,101145.11
2018-04-27T01:39:38.145Z,101145.70
2018-04-27T01:42:03.966Z,101140.81
2018-04-27T01:44:29.744Z,101136.73
2018-04-27T01:46:55.551Z,101144.09
2018-04-27T01:49:21.276Z,101144.19
2018-04-27T01:51:47.031Z,101124.89
2018-04-27T01:54:12.789Z,101139.56
2018-04-27T01:56:38.579Z,101137.41
2018-04-27T01:59:04.343Z,101136.95
2018-04-27T02:01:30.157Z,101132.64
2018-04-27T02:03:55.907Z,101133.91
2018-04-27T02:06:21.684Z,101142.83
2018-04-27T02:08:47.441Z,101139.24
2018-04-27T02:11:13.220Z,101134.81
2018-04-27T02:13:38.959Z,101137.55
2018-04-27T02:16:04.752Z,101133.47
2018-04-27T02:18:30.639Z,101138.08
2018-04-27T02:20:56.507Z,101140.23
2018-04-27T02:23:22.273Z,101137.98
2018-04-27T02:25:48.068Z,101137.73
2018-04-27T02:28:13.819Z,101136.67
2018-04-27T02:30:39.641Z,101138.98
2018-04-27T02:33:05.395Z,101131.28
2018-04-27T02:35:31.167Z,101130.00
2018-04-27T02:37:56.928Z,101127.98
2018-04-27T02:40:22.683Z,101132.80
2018-04-27T02:42:48.460Z,101135.61
2018-04-27T02:45:14.219Z,101130.93
2018-04-27T02:47:39.975Z,101131.73
2018-04-27T02:53:01.264Z,101126.16
2018-04-27T02:55:27.081Z,101121.91
2018-04-27T02:57:52.898Z,101125.30
2018-04-27T03:00:18.682Z,101111.23
2018-04-27T03:02:44.465Z,101110.74
2018-04-27T03:05:10.257Z,101122.48
2018-04-27T03:07:36.024Z,101119.50
2018-04-27T03:10:01.781Z,101120.78
2018-04-27T03:12:27.573Z,101123.91
2018-04-27T03:14:53.411Z,101117.14
2018-04-27T03:17:19.170Z,101110.45
2018-04-27T03:19:44.920Z,101113.16
2018-04-27T03:22:10.719Z,101110.34
2018-04-27T03:24:36.475Z,101105.10
2018-04-27T03:27:02.284Z,101106.32
2018-04-27T03:29:28.047Z,101101.82
2018-04-27T03:31:53.832Z,101100.23
2018-04-27T03:34:19.659Z,101097.12
2018-04-27T03:36:45.372Z,101100.66
2018-04-27T03:39:11.119Z,101095.95
2018-04-27T03:41:36.910Z,101100.23
2018-04-27T03:44:03.671Z,101097.16
2018-04-27T03:46:29.457Z,101101.84
2018-04-27T03:48:55.208Z,101092.29
2018-04-27T03:51:21.360Z,101091.98
2018-04-27T03:53:47.131Z,101095.77
2018-04-27T03:56:12.903Z,101092.94
2018-04-27T03:58:38.663Z,101096.84
2018-04-27T04:01:16.877Z,101097.98
2018-04-27T04:03:55.003Z,101100.67
2018-04-27T04:06:20.760Z,101097.09
2018-04-27T04:08:46.503Z,101095.92
2018-04-27T04:11:12.274Z,101102.92
2018-04-27T04:13:38.048Z,101101.91
2018-04-27T04:16:03.817Z,101106.55
2018-04-27T04:18:29.677Z,101095.06
2018-04-27T04:20:55.455Z,101103.66
2018-04-27T04:23:21.228Z,101106.11
2018-04-27T04:25:47.011Z,101105.69
2018-04-27T04:28:12.779Z,101099.84
2018-04-27T04:30:38.560Z,101109.35
2018-04-27T04:33:04.291Z,101106.78
2018-04-27T04:35:30.071Z,101111.63
2018-04-27T04:37:55.838Z,101113.77
2018-04-27T04:40:21.624Z,101114.11
2018-04-27T04:42:47.439Z,101112.08
2018-04-27T04:45:13.221Z,101112.92
2018-04-27T04:47:39.004Z,101111.30
2018-04-27T04:50:04.766Z,101113.02
2018-04-27T04:52:30.661Z,101121.42
2018-04-27T04:54:56.358Z,101120.94
2018-04-27T04:57:22.324Z,101127.59
2018-04-27T04:59:48.074Z,101124.16
2018-04-27T05:02:13.875Z,101129.89
2018-04-27T05:04:39.628Z,101123.16
2018-04-27T05:07:05.459Z,101130.20
2018-04-27T05:09:31.214Z,101131.02
2018-04-27T05:11:57.002Z,101129.51
2018-04-27T05:14:22.743Z,101138.61
2018-04-27T05:16:48.531Z,101137.03
2018-04-27T05:19:14.307Z,101139.98
2018-04-27T05:21:40.115Z,101139.03
2018-04-27T05:24:05.910Z,101138.89
2018-04-27T05:26:31.693Z,101138.59
2018-04-27T05:28:57.453Z,101136.64
2018-04-27T05:31:23.265Z,101142.49
2018-04-27T05:33:49.063Z,101136.79
2018-04-27T05:36:14.830Z,101134.32
2018-04-27T05:38:40.609Z,101134.14
2018-04-27T05:41:06.415Z,101140.80
2018-04-27T05:43:32.236Z,101138.80
2018-04-27T05:45:58.042Z,101135.03
2018-04-27T05:48:24.074Z,101137.52
2018-04-27T05:50:49.795Z,101134.63
2018-04-27T05:53:15.587Z,101134.92
2018-04-27T05:55:41.373Z,101136.23
2018-04-27T05:58:07.563Z,101134.51
2018-04-27T06:00:33.339Z,101133.45
2018-04-27T06:02:59.100Z,101136.38
2018-04-27T06:05:25.739Z,101132.23
2018-04-27T06:07:51.547Z,101127.69
2018-04-27T06:10:17.303Z,101128.70
2018-04-27T06:12:43.091Z,101125.42
2018-04-27T06:15:08.827Z,101125.95
2018-04-27T06:17:34.618Z,101126.70
2018-04-27T06:20:00.395Z,101131.61
2018-04-27T06:22:26.215Z,101128.75
2018-04-27T06:24:51.988Z,101126.27
2018-04-27T06:27:17.779Z,101121.80
2018-04-27T06:29:43.591Z,101123.67
2018-04-27T06:32:09.402Z,101115.78
2018-04-27T06:34:35.176Z,101119.03
2018-04-27T06:37:01.023Z,101114.24
2018-04-27T06:39:26.911Z,101112.11
2018-04-27T06:41:52.656Z,101112.09
2018-04-27T06:44:18.420Z,101114.30
2018-04-27T06:46:44.231Z,101115.53
2018-04-27T06:49:10.007Z,101110.48
2018-04-27T06:51:35.823Z,101108.49
2018-04-27T06:54:01.674Z,101099.78
2018-04-27T06:56:27.461Z,101097.86
2018-04-27T06:58:53.262Z,101098.63
2018-04-27T07:01:19.044Z,101101.56
2018-04-27T07:03:44.827Z,101097.70
2018-04-27T07:06:10.594Z,101104.09
2018-04-27T07:08:36.392Z,101097.02
2018-04-27T07:11:02.165Z,101099.09
2018-04-27T07:13:28.526Z,101102.38
2018-04-27T07:15:54.315Z,101110.71
2018-04-27T07:18:20.075Z,101109.08
2018-04-27T07:20:45.880Z,101104.28
2018-04-27T07:23:11.696Z,101111.30
2018-04-27T07:25:37.490Z,101111.47
2018-04-27T07:28:03.273Z,101116.03
2018-04-27T07:30:29.072Z,101111.41
2018-04-27T07:32:54.831Z,101116.32
2018-04-27T07:35:20.641Z,101119.05
2018-04-27T07:37:46.406Z,101113.48
2018-04-27T07:40:12.269Z,101110.17
2018-04-27T07:42:38.015Z,101110.95
2018-04-27T07:45:03.801Z,101117.78
2018-04-27T07:47:29.583Z,101114.27
2018-04-27T07:49:55.352Z,101110.88
2018-04-27T07:52:28.168Z,101106.84
2018-04-27T07:54:53.958Z,101108.57
2018-04-27T07:57:19.804Z,101117.31
2018-04-27T07:59:45.583Z,101105.73
2018-04-27T08:02:11.397Z,101105.50
2018-04-27T08:04:37.139Z,101104.95
2018-04-27T08:07:02.919Z,101101.66
2018-04-27T08:09:28.695Z,101100.99
2018-04-27T08:11:54.473Z,101101.77
2018-04-27T08:14:20.267Z,101101.06
2018-04-27T08:16:46.076Z,101103.39
2018-04-27T08:19:11.838Z,101095.81
2018-04-27T08:21:37.668Z,101095.38
2018-04-27T08:24:03.443Z,101090.28
2018-04-27T08:26:29.226Z,101098.16
2018-04-27T08:28:54.998Z,101099.92
2018-04-27T08:31:20.800Z,101096.16
2018-04-27T08:33:46.575Z,101103.52
2018-04-27T08:36:12.387Z,101101.02
2018-04-27T08:38:38.078Z,101105.59
2018-04-27T08:41:03.871Z,101098.40
2018-04-27T08:43:29.691Z,101102.20
2018-04-27T08:45:55.471Z,101099.62
2018-04-27T08:48:21.227Z,101101.63
2018-04-27T08:50:47.028Z,101096.97
2018-04-27T08:53:12.816Z,101103.23
2018-04-27T08:55:38.923Z,101104.25
2018-04-27T08:58:04.813Z,101097.26
2018-04-27T09:00:30.615Z,101092.44
2018-04-27T09:02:56.385Z,101098.62
2018-04-27T09:05:22.132Z,101090.20
2018-04-27T09:07:47.911Z,101092.56
2018-04-27T09:10:13.679Z,101103.94
2018-04-27T09:12:39.451Z,101096.22
2018-04-27T09:15:05.208Z,101090.41
2018-04-27T09:17:30.980Z,101102.89
2018-04-27T09:19:56.801Z,101110.27
2018-04-27T09:22:22.635Z,101103.67
2018-04-27T09:24:48.415Z,101100.84
2018-04-27T09:27:14.443Z,101098.31
2018-04-27T09:29:40.206Z,101093.45
2018-04-27T09:32:06.000Z,101095.59
2018-04-27T09:34:31.759Z,101095.04
2018-04-27T09:36:57.543Z,101087.95
2018-04-27T09:39:23.331Z,101090.55
2018-04-27T09:41:49.091Z,101086.95
2018-04-27T09:44:14.868Z,101079.02
2018-04-27T09:46:40.631Z,101091.49
2018-04-27T09:49:06.435Z,101084.02
2018-04-27T09:51:32.260Z,101074.05
2018-04-27T09:53:58.011Z,101082.47
2018-04-27T09:56:23.813Z,101068.91
2018-04-27T09:58:49.624Z,101075.36
2018-04-27T10:01:15.422Z,101070.58
2018-04-27T10:03:41.221Z,101076.94
2018-04-27T10:06:06.984Z,101066.38
2018-04-27T10:08:32.735Z,101065.61
2018-04-27T10:10:58.501Z,101065.42
2018-04-27T10:13:24.319Z,101053.19
2018-04-27T10:15:50.075Z,101058.62
2018-04-27T10:18:15.862Z,101039.34
2018-04-27T10:20:41.623Z,101046.43
2018-04-27T10:23:07.449Z,101036.48
2018-04-27T10:25:33.235Z,101034.05
2018-04-27T10:27:59.126Z,101032.00
2018-04-27T10:30:24.891Z,101034.63
2018-04-27T10:32:50.668Z,101028.80
2018-04-27T10:35:16.477Z,101020.64
2018-04-27T10:37:42.279Z,101019.78
2018-04-27T10:40:08.103Z,101022.05
2018-04-27T10:42:33.871Z,101014.01
2018-04-27T10:44:59.661Z,101012.89
2018-04-27T10:47:25.452Z,101011.13
2018-04-27T10:49:51.256Z,101005.25
2018-04-27T10:52:17.042Z,100995.14
2018-04-27T10:54:43.036Z,100994.64
2018-04-27T10:57:08.853Z,100999.33
2018-04-27T10:59:34.631Z,100990.47
2018-04-27T11:02:00.407Z,100988.86
2018-04-27T11:04:26.207Z,100992.82
2018-04-27T11:06:53.011Z,100986.98
2018-04-27T11:09:18.792Z,100984.95
2018-04-27T11:11:44.597Z,100981.56
2018-04-27T11:14:10.368Z,100987.70
2018-04-27T11:16:36.150Z,100975.83
2018-04-27T11:19:01.980Z,100969.64
2018-04-27T11:21:27.744Z,100973.34
2018-04-27T11:23:53.510Z,100967.61
2018-04-27T11:26:19.432Z,100967.98
2018-04-27T11:28:52.011Z,100974.24
2018-04-27T11:31:17.775Z,100968.31
2018-04-27T11:33:43.618Z,100953.80
2018-04-27T11:36:09.344Z,100960.88
2018-04-27T11:38:35.125Z,100958.92
2018-04-27T11:41:00.887Z,100954.78
2018-04-27T11:43:26.672Z,100952.09
2018-04-27T11:45:52.444Z,100947.30
2018-04-27T11:48:18.304Z,100946.50
2018-04-27T11:50:44.024Z,100944.12
2018-04-27T11:53:09.808Z,100942.29
2018-04-27T11:55:35.663Z,100938.03
2018-04-27T11:58:01.468Z,100932.77
2018-04-27T12:00:27.242Z,100933.54
2018-04-27T12:02:53.038Z,100929.48
2018-04-27T12:05:18.797Z,100925.00
2018-04-27T12:07:44.583Z,100917.81
2018-04-27T12:10:10.364Z,100926.62
2018-04-27T12:12:36.172Z,100921.78
2018-04-27T12:15:01.967Z,100925.84
2018-04-27T12:17:27.732Z,100922.80
2018-04-27T12:19:53.507Z,100919.23
2018-04-27T12:22:19.259Z,100918.23
2018-04-27T12:24:45.032Z,100911.44
2018-04-27T12:27:10.826Z,100919.98
2018-04-27T12:29:36.583Z,100922.50
2018-04-27T12:32:02.351Z,100924.59
2018-04-27T12:34:28.126Z,100926.19
2018-04-27T12:36:53.885Z,100920.80
2018-04-27T12:39:19.744Z,100926.01
2018-04-27T12:41:45.524Z,100926.36
2018-04-27T12:44:11.316Z,100927.63
2018-04-27T12:46:37.084Z,100922.25
2018-04-27T12:49:02.856Z,100913.92
2018-04-27T12:51:28.620Z,100909.20
2018-04-27T12:53:54.429Z,100914.73
2018-04-27T12:56:20.187Z,100902.20
2018-04-27T12:58:45.943Z,100903.30
2018-04-27T13:01:11.711Z,100904.93
2018-04-27T13:03:37.491Z,100896.69
2018-04-27T13:06:03.251Z,100895.86
2018-04-27T13:08:29.044Z,100889.14
2018-04-27T13:10:54.812Z,100886.72
2018-04-27T13:13:20.636Z,100881.80
2018-04-27T13:15:46.427Z,100884.30
2018-04-27T13:18:12.192Z,100879.23
2018-04-27T13:20:38.040Z,100877.32
2018-04-27T13:23:03.796Z,100868.40
2018-04-27T13:25:29.575Z,100868.63
2018-04-27T13:27:55.614Z,100868.90
2018-04-27T13:30:21.406Z,100862.03
2018-04-27T13:32:47.151Z,100868.73
2018-04-27T13:35:12.951Z,100866.83
2018-04-27T13:37:38.737Z,100859.27
2018-04-27T13:40:04.557Z,100849.34
2018-04-27T13:42:30.323Z,100849.09
2018-04-27T13:44:56.128Z,100844.18
2018-04-27T13:47:21.921Z,100846.55
2018-04-27T13:49:47.682Z,100859.77
2018-04-27T13:52:13.454Z,100856.62
2018-04-27T13:54:39.227Z,100843.06
2018-04-27T13:57:05.279Z,100836.56
2018-04-27T13:59:31.139Z,100837.98
2018-04-27T14:01:56.918Z,100830.80
2018-04-27T14:04:22.707Z,100818.45
2018-04-27T14:06:48.498Z,100811.58
2018-04-27T14:09:14.310Z,100816.78
2018-04-27T14:11:40.099Z,100807.80
2018-04-27T14:14:05.903Z,100801.56
2018-04-27T14:16:31.676Z,100794.20
2018-04-27T14:18:57.509Z,100790.72
2018-04-27T14:21:23.356Z,100786.47
2018-04-27T14:23:49.087Z,100771.85
2018-04-27T14:26:14.887Z,100772.53
2018-04-27T14:28:40.676Z,100770.26
2018-04-27T14:31:06.479Z,100768.98
2018-04-27T14:33:32.241Z,100757.78
2018-04-27T14:35:58.023Z,100755.20
2018-04-27T14:38:23.779Z,100747.59
2018-04-27T14:40:49.562Z,100755.22
2018-04-27T14:43:15.315Z,100756.81
2018-04-27T14:45:41.156Z,100759.17
2018-04-27T14:48:06.940Z,100757.22
2018-04-27T14:50:32.982Z,100759.50
2018-04-27T14:52:58.768Z,100758.95
2018-04-27T14:55:24.531Z,100757.23
2018-04-27T14:57:50.472Z,100760.38
2018-04-27T15:00:16.566Z,100756.91
2018-04-27T15:02:42.416Z,100747.30
2018-04-27T15:05:08.174Z,100751.87
2018-04-27T15:07:33.973Z,100753.56
2018-04-27T15:09:59.727Z,100751.70
2018-04-27T15:12:25.513Z,100745.17
2018-04-27T15:14:51.303Z,100744.47
2018-04-27T15:17:17.059Z,100740.56
2018-04-27T15:19:42.811Z,100740.64
2018-04-27T15:22:08.586Z,100738.28
2018-04-27T15:24:34.350Z,100745.83
2018-04-27T15:27:00.164Z,100747.08
2018-04-27T15:29:25.939Z,100747.12
2018-04-27T15:31:51.719Z,100745.38
2018-04-27T15:34:17.727Z,100747.41
2018-04-27T15:36:43.515Z,100748.48
2018-04-27T15:39:09.330Z,100744.41
2018-04-27T15:41:35.076Z,100737.03
2018-04-27T15:44:00.885Z,100735.53
2018-04-27T15:46:26.683Z,100740.12
2018-04-27T15:48:52.495Z,100737.33
2018-04-27T15:51:18.279Z,100730.56
2018-04-27T15:53:44.056Z,100729.02
2018-04-27T15:56:09.845Z,100731.95
2018-04-27T15:58:35.668Z,100734.77
2018-04-27T16:01:01.464Z,100733.22
2018-04-27T16:03:27.247Z,100738.77
2018-04-27T16:05:53.032Z,100743.61
2018-04-27T16:08:18.845Z,100744.08
2018-04-27T16:10:44.644Z,100737.31
2018-04-27T16:16:14.124Z,100740.47
2018-04-27T16:18:39.908Z,100737.92
2018-04-27T16:21:05.712Z,100735.46
2018-04-27T16:23:31.524Z,100733.52
2018-04-27T16:25:57.361Z,100724.09
2018-04-27T16:28:23.143Z,100727.80
2018-04-27T16:30:48.977Z,100722.46
2018-04-27T16:33:14.787Z,100718.70
2018-04-27T16:35:40.547Z,100720.11
2018-04-27T16:38:06.337Z,100719.20
2018-04-27T16:40:32.124Z,100726.08
2018-04-27T16:42:57.904Z,100728.46
2018-04-27T16:45:23.676Z,100725.28
2018-04-27T16:47:49.459Z,100734.20
2018-04-27T16:50:15.230Z,100731.77
2018-04-27T16:52:41.032Z,100729.02
2018-04-27T16:55:06.867Z,100732.87
2018-04-27T16:57:32.650Z,100730.42
2018-04-27T16:59:58.413Z,100726.75
2018-04-27T17:02:24.163Z,100722.39
2018-04-27T17:04:49.937Z,100721.42
2018-04-27T17:07:15.727Z,100720.58
2018-04-27T17:09:41.527Z,100716.35
2018-04-27T17:12:07.312Z,100711.94
2018-04-27T17:14:33.098Z,100705.59
2018-04-27T17:16:58.871Z,100698.63
2018-04-27T17:19:24.845Z,100697.00
2018-04-27T17:21:50.590Z,100695.82
2018-04-27T17:24:16.368Z,100696.60
2018-04-27T17:26:42.144Z,100699.25
2018-04-27T17:29:07.927Z,100697.70
2018-04-27T17:31:33.771Z,100700.38
2018-04-27T17:33:59.531Z,100702.66
2018-04-27T17:36:25.313Z,100700.74
2018-04-27T17:38:51.143Z,100700.34
2018-04-27T17:41:17.013Z,100709.52
2018-04-27T17:43:42.811Z,100715.17
2018-04-27T17:46:08.568Z,100713.50
2018-04-27T17:48:34.368Z,100715.24
2018-04-27T17:51:00.132Z,100713.76
2018-04-27T17:53:25.997Z,100712.58
2018-04-27T17:55:51.761Z,100720.20
2018-04-27T17:58:17.627Z,100717.75
2018-04-27T18:00:43.407Z,100717.56
2018-04-27T18:03:09.191Z,100718.86
2018-04-27T18:05:34.966Z,100718.00
2018-04-27T18:08:00.746Z,100716.53
2018-04-27T18:10:26.678Z,100717.11
2018-04-27T18:12:52.487Z,100718.33
2018-04-27T18:15:18.289Z,100720.62
2018-04-27T18:17:44.151Z,100716.73
2018-04-27T18:20:09.909Z,100711.02
2018-04-27T18:22:35.955Z,100705.42
2018-04-27T18:25:01.773Z,100701.41
2018-04-27T18:27:27.535Z,100705.67
2018-04-27T18:29:53.356Z,100715.63
2018-04-27T18:32:19.113Z,100708.24
2018-04-27T18:34:44.879Z,100712.64
2018-04-27T18:37:10.671Z,100713.83
2018-04-27T18:39:37.631Z,100725.32
2018-04-27T18:42:03.410Z,100715.84
2018-04-27T18:44:29.283Z,100719.07
2018-04-27T18:46:55.069Z,100719.80
2018-04-27T18:49:20.860Z,100714.35
2018-04-27T18:51:46.654Z,100708.84
2018-04-27T18:54:12.451Z,100718.94
2018-04-27T18:56:38.223Z,100716.86
2018-04-27T18:59:04.037Z,100713.23
2018-04-27T19:01:29.823Z,100710.09
2018-04-27T19:03:55.631Z,100715.04
2018-04-27T19:06:23.392Z,100712.64
2018-04-27T19:08:49.236Z,100713.03
2018-04-27T19:11:14.987Z,100719.56
2018-04-27T19:13:40.743Z,100720.55
2018-04-27T19:16:06.588Z,100716.00
2018-04-27T19:18:32.355Z,100710.13
2018-04-27T19:20:58.505Z,100711.05
2018-04-27T19:23:25.190Z,100715.88
2018-04-27T19:25:50.968Z,100718.18
2018-04-27T19:28:17.608Z,100722.21
2018-04-27T19:30:43.427Z,100726.28
2018-04-27T19:33:09.313Z,100728.64
2018-04-27T19:35:35.079Z,100721.63
2018-04-27T19:38:00.860Z,100728.19
2018-04-27T19:40:26.647Z,100727.63
2018-04-27T19:42:52.447Z,100718.64
2018-04-27T19:45:18.195Z,100725.23
2018-04-27T19:47:43.955Z,100720.06
2018-04-27T19:50:09.727Z,100721.77
2018-04-27T19:52:35.491Z,100729.43
2018-04-27T19:55:01.521Z,100728.77
2018-04-27T19:57:27.314Z,100727.72
2018-04-27T19:59:53.099Z,100732.57
2018-04-27T20:02:18.867Z,100727.30
2018-04-27T20:04:44.734Z,100726.66
2018-04-27T20:07:10.601Z,100724.86
2018-04-27T20:09:36.460Z,100719.59
2018-04-27T20:12:02.272Z,100724.49
2018-04-27T20:14:32.803Z,100725.41
2018-04-27T20:16:59.551Z,100726.79
2018-04-27T20:19:25.338Z,100726.23
2018-04-27T20:21:51.135Z,100729.72
2018-04-27T20:24:16.942Z,100725.63
2018-04-27T20:26:42.690Z,100727.38
2018-04-27T20:29:08.804Z,100730.73
2018-04-27T20:31:34.665Z,100725.94
2018-04-27T20:34:00.460Z,100717.72
2018-04-27T20:36:26.259Z,100726.94
2018-04-27T20:38:52.004Z,100716.84
2018-04-27T20:41:17.773Z,100710.06
2018-04-27T20:43:43.608Z,100705.03
2018-04-27T20:46:09.415Z,100707.66
2018-04-27T20:48:35.184Z,100705.88
2018-04-27T20:51:01.913Z,100701.98
2018-04-27T20:53:29.588Z,100693.95
2018-04-27T20:56:01.617Z,100693.45
2018-04-27T20:58:27.391Z,100700.17
2018-04-27T21:00:53.196Z,100701.84
2018-04-27T21:03:18.966Z,100696.39
2018-04-27T21:05:44.750Z,100692.85
2018-04-27T21:08:10.528Z,100691.60
2018-04-27T21:10:36.287Z,100686.16
2018-04-27T21:13:03.976Z,100680.36
2018-04-27T21:15:29.788Z,100675.55
2018-04-27T21:17:55.608Z,100672.45
2018-04-27T21:20:21.378Z,100673.59
2018-04-27T21:22:48.164Z,100664.19
2018-04-27T21:25:13.956Z,100661.13
2018-04-27T21:27:40.588Z,100659.09
2018-04-27T21:30:06.454Z,100652.20
2018-04-27T21:32:32.162Z,100649.59
2018-04-27T21:34:57.928Z,100645.82
2018-04-27T21:37:23.716Z,100647.83
2018-04-27T21:39:49.500Z,100643.70
2018-04-27T21:42:15.283Z,100645.43
2018-04-27T21:44:41.036Z,100640.72
2018-04-27T21:47:06.815Z,100641.20
2018-04-27T21:49:32.563Z,100637.30
2018-04-27T21:51:58.343Z,100638.06
2018-04-27T21:54:24.103Z,100634.64
2018-04-27T21:56:56.811Z,100632.53
2018-04-27T21:59:29.504Z,100632.47
2018-04-27T22:01:55.458Z,100633.41
2018-04-27T22:04:21.231Z,100629.22
2018-04-27T22:06:47.047Z,100627.50
2018-04-27T22:09:12.828Z,100631.52
2018-04-27T22:11:46.691Z,100624.66
2018-04-27T22:14:16.243Z,100627.84
2018-04-27T22:16:42.044Z,100627.55
2018-04-27T22:19:09.639Z,100622.70
2018-04-27T22:21:37.479Z,100619.02
2018-04-27T22:24:13.228Z,100615.27
2018-04-27T22:26:39.020Z,100612.59
2018-04-27T22:29:05.851Z,100615.47
2018-04-27T22:31:31.627Z,100613.83
2018-04-27T22:33:58.307Z,100609.02
2018-04-27T22:36:25.057Z,100616.37
2018-04-27T22:41:56.143Z,100609.34
2018-04-27T22:44:21.915Z,100608.92
2018-04-27T22:46:47.704Z,100602.72
2018-04-27T22:49:14.281Z,100600.56
2018-04-27T22:51:40.911Z,100605.76
2018-04-27T22:54:06.744Z,100599.91
2018-04-27T22:59:29.851Z,100596.30
2018-04-27T23:01:58.467Z,100592.30
2018-04-27T23:04:24.227Z,100595.24
2018-04-27T23:06:50.007Z,100593.61
2018-04-27T23:09:15.771Z,100593.19
2018-04-27T23:11:41.559Z,100605.06
2018-04-27T23:14:10.290Z,100591.88
2018-04-27T23:16:36.087Z,100588.44
2018-04-27T23:19:01.851Z,100582.83
2018-04-27T23:24:32.980Z,100580.10
2018-04-27T23:26:59.747Z,100580.00
2018-04-27T23:29:25.547Z,100584.34
2018-04-27T23:31:51.312Z,100578.11
2018-04-27T23:34:18.939Z,100579.77
2018-04-27T23:36:44.763Z,100579.17
2018-04-27T23:39:10.539Z,100572.58
2018-04-27T23:41:36.323Z,100572.14
2018-04-27T23:44:02.115Z,100569.23
2018-04-27T23:46:28.101Z,100571.22
2018-04-27T23:48:53.895Z,100571.19
2018-04-27T23:51:19.661Z,100569.69
2018-04-27T23:53:45.426Z,100567.10
2018-04-27T23:56:11.186Z,100563.20
2018-04-27T23:58:36.963Z,100560.50
